Time;durP1;ratioP1;P1;durP2;ratioP2;P2;SDS_P1;SDS_P2;PMS_P1;PMS_P2;Temp;Humidity;BMP_temperature;BMP_pressure;BME280_temperature;BME280_humidity;BME280_pressure;Samples;Min_cycle;Max_cycle;Signal;HPM_P1;HPM_P2
2022/12/29 00:00:31;;;;;;;1.33;1.03;;;;;;;8.32;100.00;100079.31;6007306;29;20237;-68
2022/12/29 00:03:52;;;;;;;1.17;0.97;;;;;;;8.34;100.00;100077.31;5986602;29;20252;-68
2022/12/29 00:07:14;;;;;;;1.20;1.10;;;;;;;8.42;100.00;100067.56;6008776;29;21169;-67
2022/12/29 00:10:34;;;;;;;1.80;1.43;;;;;;;8.43;100.00;100063.88;6008186;29;20632;-68
2022/12/29 00:17:34;;;;;;;1.67;1.57;;;;;;;8.46;100.00;100054.69;6005358;29;20239;-67
2022/12/29 00:35:39;;;;;;;6.03;1.50;;;;;;;8.69;100.00;100034.59;5996644;29;20234;-67
2022/12/29 00:46:21;;;;;;;1.57;1.47;;;;;;;8.69;99.67;100026.53;6003450;29;20230;-67
2022/12/29 00:49:41;;;;;;;1.63;1.53;;;;;;;8.73;99.94;100023.41;6013446;29;20246;-68
2022/12/29 00:53:02;;;;;;;1.70;1.60;;;;;;;8.74;99.60;100018.88;6024849;29;20241;-68
2022/12/29 00:56:23;;;;;;;2.27;2.07;;;;;;;8.73;100.00;100018.03;6014867;29;20530;-68
2022/12/29 00:59:45;;;;;;;1.47;1.40;;;;;;;8.76;99.86;100024.97;6003271;29;20249;-67
2022/12/29 01:03:06;;;;;;;1.23;1.20;;;;;;;8.77;99.82;100026.63;6017419;29;20238;-67
2022/12/29 01:06:28;;;;;;;1.63;1.53;;;;;;;8.77;100.00;100014.06;6013717;29;20234;-68
2022/12/29 01:13:27;;;;;;;1.70;1.60;;;;;;;8.88;99.18;100009.50;6015892;29;20238;-67
2022/12/29 01:16:49;;;;;;;1.53;1.47;;;;;;;8.91;99.21;100001.97;6012703;29;20242;-67
2022/12/29 01:20:12;;;;;;;1.40;1.20;;;;;;;8.90;99.38;100012.88;6004233;29;20235;-68
2022/12/29 01:23:33;;;;;;;1.70;1.60;;;;;;;8.91;99.33;100007.34;6006228;29;20603;-68
2022/12/29 01:26:54;;;;;;;1.40;1.30;;;;;;;8.94;99.80;99998.16;5998934;29;20359;-68
2022/12/29 01:30:15;;;;;;;1.97;1.77;;;;;;;8.95;99.35;99981.88;5997543;29;20233;-68
2022/12/29 01:33:37;;;;;;;3.57;3.00;;;;;;;8.97;99.29;99979.06;6013128;29;20819;-68
2022/12/29 01:36:58;;;;;;;2.53;1.67;;;;;;;8.98;98.71;99973.53;6010860;29;20226;-68
2022/12/29 01:40:19;;;;;;;1.60;1.50;;;;;;;9.00;99.57;99963.47;6002532;29;20238;-68
2022/12/29 01:43:43;;;;;;;2.93;2.73;;;;;;;8.98;100.00;99957.41;6009152;29;20230;-67
2022/12/29 01:47:04;;;;;;;1.40;1.20;;;;;;;8.96;100.00;99963.91;6007318;29;20726;-68
2022/12/29 01:50:30;;;;;;;1.90;1.80;;;;;;;8.95;100.00;99968.44;6010765;29;20298;-68
2022/12/29 01:53:52;;;;;;;3.17;2.50;;;;;;;8.90;100.00;99965.34;5999413;29;20230;-67
2022/12/29 01:57:17;;;;;;;2.93;2.20;;;;;;;8.84;100.00;99957.88;6007245;29;20621;-68
2022/12/29 02:00:40;;;;;;;6.40;2.70;;;;;;;8.79;100.00;99963.69;6012954;29;20821;-68
2022/12/29 02:04:01;;;;;;;1.43;1.37;;;;;;;8.78;100.00;99953.09;6003322;29;20235;-68
2022/12/29 02:07:27;;;;;;;1.67;1.50;;;;;;;8.79;100.00;99957.47;6017619;29;20365;-68
2022/12/29 02:10:48;;;;;;;3.37;2.50;;;;;;;8.76;100.00;99960.47;6005201;29;20250;-69
2022/12/29 02:14:12;;;;;;;1.40;1.30;;;;;;;8.74;100.00;99949.84;6002608;29;20230;-67
2022/12/29 02:17:51;;;;;;;3.00;1.50;;;;;;;8.74;100.00;99940.97;6003346;29;20358;-67
2022/12/29 02:21:46;;;;;;;2.37;2.00;;;;;;;8.75;100.00;99935.44;5976436;29;20251;-67
2022/12/29 02:25:32;;;;;;;1.43;1.33;;;;;;;8.72;100.00;99926.78;6003329;29;20229;-68
2022/12/29 02:29:15;;;;;;;2.27;1.70;;;;;;;8.74;100.00;99935.59;6009617;29;20331;-67
2022/12/29 02:32:51;;;;;;;1.83;1.40;;;;;;;8.74;100.00;99928.34;6014166;29;20231;-68
2022/12/29 02:36:20;;;;;;;1.30;1.30;;;;;;;8.75;100.00;99913.94;5998488;29;20249;-68
2022/12/29 02:39:50;;;;;;;1.63;1.53;;;;;;;8.77;100.00;99909.25;6014953;29;20244;-68
2022/12/29 02:43:25;;;;;;;2.23;1.87;;;;;;;8.79;100.00;99901.91;6011784;29;20934;-68
2022/12/29 02:46:53;;;;;;;3.27;1.80;;;;;;;8.83;100.00;99902.44;5989756;29;20359;-67
2022/12/29 02:50:21;;;;;;;1.50;1.40;;;;;;;8.86;100.00;99900.28;5994376;29;20345;-67
2022/12/29 02:57:32;;;;;;;4.53;1.90;;;;;;;8.87;100.00;99898.44;6012245;29;20261;-68
2022/12/29 03:01:07;;;;;;;1.70;1.60;;;;;;;8.89;100.00;99898.31;6006591;29;20620;-67
2022/12/29 03:04:41;;;;;;;2.77;1.67;;;;;;;8.92;100.00;99890.81;6013238;29;20241;-68
2022/12/29 03:08:14;;;;;;;2.07;1.53;;;;;;;8.95;100.00;99900.41;6016064;29;20235;-67
2022/12/29 03:19:18;;;;;;;1.33;1.30;;;;;;;8.98;100.00;99876.75;6006870;29;20247;-67
2022/12/29 03:22:43;;;;;;;1.33;1.30;;;;;;;9.02;100.00;99864.69;5999868;29;20234;-68
2022/12/29 03:26:12;;;;;;;1.70;1.60;;;;;;;9.01;100.00;99870.25;6012224;29;20238;-68
2022/12/29 03:29:37;;;;;;;2.57;1.73;;;;;;;9.04;100.00;99862.72;6004444;29;20238;-68
2022/12/29 03:33:03;;;;;;;2.13;2.00;;;;;;;9.06;100.00;99852.66;6022313;29;20235;-68
2022/12/29 03:36:31;;;;;;;2.13;1.63;;;;;;;9.05;100.00;99847.44;5999573;29;20234;-68
2022/12/29 03:39:52;;;;;;;0.97;0.93;;;;;;;9.10;100.00;99847.81;6001639;29;20226;-67
2022/12/29 03:43:17;;;;;;;1.50;1.40;;;;;;;9.09;100.00;99852.34;6019003;29;20235;-68
2022/12/29 03:46:39;;;;;;;2.13;1.67;;;;;;;9.18;100.00;99854.13;6001493;29;20242;-68
2022/12/29 03:49:59;;;;;;;1.00;1.00;;;;;;;9.19;100.00;99849.59;6019413;29;20257;-68
2022/12/29 03:53:21;;;;;;;0.90;0.90;;;;;;;9.20;100.00;99851.28;6021527;29;20243;-68
2022/12/29 03:56:41;;;;;;;1.77;1.20;;;;;;;9.21;100.00;99847.59;6002803;29;20628;-68
2022/12/29 04:00:07;;;;;;;2.33;1.53;;;;;;;9.25;100.00;99848.97;6016815;29;20452;-67
2022/12/29 04:03:36;;;;;;;2.13;1.20;;;;;;;9.25;100.00;99851.66;6012754;29;20238;-68
2022/12/29 04:06:57;;;;;;;1.03;0.90;;;;;;;9.27;100.00;99828.16;6001505;29;20321;-67
2022/12/29 04:10:18;;;;;;;2.90;1.13;;;;;;;9.29;100.00;99813.56;5996570;29;20242;-69
2022/12/29 04:13:41;;;;;;;1.37;1.20;;;;;;;9.28;100.00;99833.38;6021783;29;20257;-68
2022/12/29 04:17:04;;;;;;;1.47;1.37;;;;;;;9.29;99.63;99816.25;6011310;29;20668;-67
2022/12/29 04:24:06;;;;;;;1.20;1.10;;;;;;;9.26;100.00;99813.03;6012133;29;20265;-68
2022/12/29 04:27:27;;;;;;;1.20;1.10;;;;;;;9.21;100.00;99816.19;6023615;29;20777;-68
2022/12/29 04:31:09;;;;;;;1.83;1.70;;;;;;;9.17;100.00;99822.88;6008807;29;20230;-68
2022/12/29 04:34:34;;;;;;;1.20;1.10;;;;;;;9.19;100.00;99814.63;6014973;29;20814;-68
2022/12/29 04:37:55;;;;;;;4.33;1.20;;;;;;;9.14;100.00;99793.56;6005712;29;20258;-67
2022/12/29 04:41:16;;;;;;;1.30;0.90;;;;;;;9.02;100.00;99792.13;6010865;29;20240;-68
2022/12/29 04:44:36;;;;;;;0.83;0.83;;;;;;;9.01;100.00;99790.41;6014003;29;20234;-68
2022/12/29 04:48:07;;;;;;;1.10;1.00;;;;;;;9.04;100.00;99798.19;5999769;29;20238;-68
2022/12/29 04:51:45;;;;;;;0.60;0.60;;;;;;;8.99;100.00;99788.91;6018094;29;20612;-67
2022/12/29 04:55:08;;;;;;;1.40;1.10;;;;;;;9.04;100.00;99784.75;6011246;29;20234;-67
2022/12/29 04:58:30;;;;;;;4.10;1.30;;;;;;;9.09;100.00;99785.16;6007035;29;21897;-67
2022/12/29 05:01:53;;;;;;;1.00;1.00;;;;;;;9.11;100.00;99772.41;5995834;29;20325;-67
2022/12/29 05:05:14;;;;;;;1.00;0.90;;;;;;;9.16;100.00;99770.06;6023018;29;20241;-67
2022/12/29 05:08:38;;;;;;;0.93;0.93;;;;;;;9.17;100.00;99774.47;6001116;29;20235;-67
2022/12/29 05:12:00;;;;;;;2.73;0.83;;;;;;;9.26;100.00;99770.81;6015838;29;20565;-68
2022/12/29 05:15:20;;;;;;;1.27;1.17;;;;;;;9.31;100.00;99783.81;6017817;29;20230;-67
2022/12/29 05:18:41;;;;;;;0.90;0.70;;;;;;;9.33;100.00;99779.13;6008949;29;20234;-67
2022/12/29 05:22:03;;;;;;;0.87;0.70;;;;;;;9.38;100.00;99777.69;6011064;29;20231;-67
2022/12/29 05:25:26;;;;;;;1.53;1.43;;;;;;;9.43;100.00;99780.72;6002021;29;20235;-68
2022/12/29 05:29:01;;;;;;;0.70;0.70;;;;;;;9.56;100.00;99783.88;6005694;29;20243;-68
2022/12/29 05:32:22;;;;;;;4.37;0.90;;;;;;;9.68;100.00;99777.22;6017579;29;20802;-68
2022/12/29 05:35:43;;;;;;;1.03;1.00;;;;;;;9.70;100.00;99762.78;6011424;29;20337;-68
2022/12/29 05:39:07;;;;;;;0.90;0.90;;;;;;;9.79;100.00;99776.13;6007333;29;21096;-68
2022/12/29 05:42:29;;;;;;;0.80;0.80;;;;;;;9.91;100.00;99774.84;5987371;29;20578;-68
2022/12/29 05:46:09;;;;;;;0.60;0.60;;;;;;;9.92;100.00;99771.16;5984816;29;20318;-68
2022/12/29 05:49:48;;;;;;;0.97;0.97;;;;;;;9.92;100.00;99765.78;5996669;29;20283;-68
2022/12/29 05:53:27;;;;;;;1.00;0.90;;;;;;;10.05;100.00;99778.81;6009933;29;20229;-68
2022/12/29 05:56:48;;;;;;;0.50;0.50;;;;;;;10.24;97.51;99786.69;5984433;29;20243;-68
2022/12/29 06:00:12;;;;;;;1.00;0.70;;;;;;;10.36;96.68;99774.63;5993200;29;20234;-67
2022/12/29 06:03:35;;;;;;;0.80;0.80;;;;;;;10.37;96.25;99776.28;5982721;29;20503;-67
2022/12/29 06:06:56;;;;;;;1.03;1.03;;;;;;;10.46;94.20;99769.94;5985077;29;20242;-69
2022/12/29 06:10:27;;;;;;;0.80;0.80;;;;;;;10.56;92.73;99776.03;5996623;29;21093;-67
2022/12/29 06:13:53;;;;;;;0.53;0.53;;;;;;;10.53;93.14;99786.31;6019147;29;20234;-68
2022/12/29 06:17:15;;;;;;;0.60;0.60;;;;;;;10.50;94.08;99795.56;6009937;29;20505;-67
2022/12/29 06:20:37;;;;;;;0.53;0.53;;;;;;;10.54;94.15;99786.13;6008553;29;20438;-67
2022/12/29 06:24:00;;;;;;;1.27;1.07;;;;;;;10.50;94.35;99792.88;5991952;29;20242;-67
2022/12/29 06:27:21;;;;;;;0.90;0.90;;;;;;;10.44;95.03;99796.22;6019058;29;20381;-67
2022/12/29 06:30:44;;;;;;;0.60;0.60;;;;;;;10.25;95.20;99791.91;5989788;29;20238;-68
2022/12/29 06:34:06;;;;;;;0.60;0.60;;;;;;;10.26;95.19;99784.69;5988772;29;20613;-67
2022/12/29 06:37:27;;;;;;;0.60;0.60;;;;;;;10.14;96.13;99788.63;5994028;29;20235;-68
2022/12/29 06:40:48;;;;;;;0.60;0.60;;;;;;;10.16;96.09;99787.47;5991007;29;20263;-67
2022/12/29 06:44:32;;;;;;;0.60;0.60;;;;;;;10.12;96.69;99786.13;5976316;29;20683;-68
2022/12/29 06:48:00;;;;;;;0.53;0.53;;;;;;;10.07;97.49;99780.34;5998032;29;20368;-67
2022/12/29 06:51:22;;;;;;;0.90;0.90;;;;;;;10.05;98.20;99781.50;5987069;29;20242;-68
2022/12/29 06:54:43;;;;;;;0.60;0.60;;;;;;;10.02;97.52;99771.03;5999530;29;20233;-67
2022/12/29 06:58:03;;;;;;;0.50;0.50;;;;;;;10.01;97.19;99770.19;6003924;29;20242;-67
2022/12/29 07:01:25;;;;;;;0.70;0.70;;;;;;;10.02;97.23;99774.59;6005167;29;20242;-70
2022/12/29 07:04:46;;;;;;;0.70;0.70;;;;;;;9.94;97.75;99773.69;5987299;29;20515;-69
2022/12/29 07:08:08;;;;;;;0.50;0.50;;;;;;;9.95;97.28;99773.53;6004036;29;20333;-69
2022/12/29 07:11:29;;;;;;;1.07;0.80;;;;;;;9.99;96.78;99772.19;6001514;29;20238;-69
2022/12/29 07:14:50;;;;;;;0.67;0.67;;;;;;;9.97;96.94;99758.06;5995569;29;20237;-68
2022/12/29 07:18:10;;;;;;;0.50;0.50;;;;;;;9.93;97.09;99780.91;6002027;29;20274;-67
2022/12/29 07:21:32;;;;;;;0.70;0.70;;;;;;;10.01;96.03;99766.69;6002127;29;20226;-68
2022/12/29 07:24:54;;;;;;;0.60;0.60;;;;;;;10.00;96.32;99768.53;6001769;29;20325;-68
2022/12/29 07:28:14;;;;;;;0.80;0.80;;;;;;;9.98;97.03;99785.81;6001323;29;20231;-68
2022/12/29 07:31:35;;;;;;;0.90;0.90;;;;;;;9.96;96.74;99785.16;5998750;29;20239;-68
2022/12/29 07:34:56;;;;;;;2.00;1.90;;;;;;;9.98;96.55;99780.44;6011153;29;20684;-68
2022/12/29 07:38:17;;;;;;;0.70;0.70;;;;;;;10.08;95.70;99789.25;6016798;29;20486;-68
2022/12/29 07:41:39;;;;;;;0.93;0.93;;;;;;;10.14;95.09;99812.88;5999371;29;20599;-68
2022/12/29 07:45:06;;;;;;;0.50;0.50;;;;;;;10.19;94.87;99807.88;6015625;29;20235;-68
2022/12/29 07:48:43;;;;;;;2.70;0.90;;;;;;;9.95;96.69;99781.59;6003862;29;20246;-67
2022/12/29 07:52:04;;;;;;;0.83;0.83;;;;;;;9.85;98.02;99812.31;6009693;29;20342;-67
2022/12/29 07:55:25;;;;;;;0.90;0.90;;;;;;;9.80;98.65;99807.44;6012485;29;20825;-67
2022/12/29 07:58:47;;;;;;;1.70;1.60;;;;;;;9.76;99.37;99797.13;6000019;29;20231;-67
2022/12/29 08:02:10;;;;;;;0.90;0.90;;;;;;;9.71;99.34;99792.22;5979529;29;20658;-68
2022/12/29 08:05:31;;;;;;;0.50;0.50;;;;;;;9.64;100.00;99789.31;6002144;29;20241;-67
2022/12/29 08:08:52;;;;;;;1.47;1.37;;;;;;;9.59;100.00;99815.84;5985659;29;20243;-68
2022/12/29 08:12:13;;;;;;;1.23;1.13;;;;;;;9.57;100.00;99817.81;6015550;29;20242;-68
2022/12/29 08:15:35;;;;;;;0.70;0.70;;;;;;;9.54;100.00;99815.47;6009595;29;20258;-68
2022/12/29 08:18:57;;;;;;;0.67;0.67;;;;;;;9.63;99.72;99819.91;5982914;29;20532;-67
2022/12/29 08:22:18;;;;;;;1.27;0.90;;;;;;;9.78;98.14;99822.03;6012854;29;20234;-67
2022/12/29 08:25:39;;;;;;;1.23;0.70;;;;;;;9.91;97.43;99825.19;6014188;29;20246;-66
2022/12/29 08:28:59;;;;;;;1.93;1.03;;;;;;;9.91;96.70;99830.56;5992987;29;20523;-66
2022/12/29 08:32:22;;;;;;;0.80;0.80;;;;;;;9.91;96.90;99844.03;6004999;29;20266;-67
2022/12/29 08:35:42;;;;;;;0.53;0.53;;;;;;;10.03;96.58;99854.38;6001486;29;20245;-67
2022/12/29 08:39:05;;;;;;;1.03;0.70;;;;;;;11.12;91.96;99848.16;5998806;29;20242;-68
2022/12/29 08:42:30;;;;;;;0.73;0.70;;;;;;;10.21;93.97;99855.19;6004048;29;20259;-66
2022/12/29 08:45:51;;;;;;;0.80;0.80;;;;;;;10.21;95.73;99855.19;6005370;29;20242;-65
2022/12/29 08:49:14;;;;;;;1.30;1.10;;;;;;;10.18;94.70;99850.09;6000775;29;20242;-64
2022/12/29 08:52:34;;;;;;;0.87;0.80;;;;;;;10.20;94.37;99849.97;5999776;29;20235;-66
2022/12/29 08:55:57;;;;;;;0.80;0.80;;;;;;;10.20;94.10;99853.47;6009052;29;20325;-66
2022/12/29 08:59:18;;;;;;;1.50;1.40;;;;;;;10.66;91.01;99862.16;6012721;29;20564;-66
2022/12/29 09:02:42;;;;;;;1.37;1.27;;;;;;;12.56;82.37;99855.41;6004505;29;20239;-68
2022/12/29 09:06:04;;;;;;;0.67;0.60;;;;;;;12.67;79.25;99865.84;6008459;29;21293;-68
2022/12/29 09:09:25;;;;;;;0.63;0.63;;;;;;;13.11;77.76;99859.94;6007704;29;20226;-67
2022/12/29 09:12:46;;;;;;;4.17;0.87;;;;;;;13.52;75.22;99859.50;6015885;29;20242;-65
2022/12/29 09:16:07;;;;;;;2.43;1.03;;;;;;;13.57;74.14;99861.69;6011497;29;20234;-67
2022/12/29 09:19:28;;;;;;;0.47;0.47;;;;;;;13.39;74.00;99883.63;5998363;29;20499;-70
2022/12/29 09:22:50;;;;;;;0.50;0.50;;;;;;;12.45;76.15;99882.81;6015687;29;20258;-66
2022/12/29 09:26:11;;;;;;;0.50;0.50;;;;;;;13.51;75.03;99873.25;6008852;29;20238;-66
2022/12/29 09:29:32;;;;;;;1.10;0.30;;;;;;;13.50;72.86;99887.78;5991659;29;20238;-68
2022/12/29 09:32:53;;;;;;;2.47;0.77;;;;;;;12.70;74.34;99880.88;6005240;29;21213;-68
2022/12/29 09:36:13;;;;;;;0.40;0.40;;;;;;;13.36;72.55;99904.78;6011230;29;20229;-68
2022/12/29 09:39:36;;;;;;;0.45;0.45;;;;;;;13.96;71.02;99899.47;6003104;29;20242;-69
2022/12/29 09:43:12;;;;;;;0.68;0.60;;;;;;;11.64;78.68;99894.66;6020381;29;20231;-67
2022/12/29 09:46:39;;;;;;;1.60;0.60;;;;;;;12.33;78.19;99905.78;6013400;29;20241;-66
2022/12/29 09:50:04;;;;;;;1.23;0.60;;;;;;;12.44;75.35;99904.59;6012936;29;20238;-68
2022/12/29 09:53:30;;;;;;;0.70;0.70;;;;;;;11.00;81.65;99916.91;6003800;29;20231;-67
2022/12/29 09:56:53;;;;;;;1.27;0.73;;;;;;;10.98;80.93;99897.34;6010370;29;20230;-67
2022/12/29 10:00:17;;;;;;;2.63;0.70;;;;;;;11.83;77.22;99915.94;6008708;29;20229;-69
2022/12/29 10:03:47;;;;;;;1.73;1.13;;;;;;;11.37;79.45;99905.75;6001789;29;20266;-67
2022/12/29 10:07:18;;;;;;;1.20;0.50;;;;;;;13.01;72.81;99933.19;6005941;29;20253;-69
2022/12/29 10:10:46;;;;;;;0.87;0.60;;;;;;;14.13;67.41;99911.88;6010851;29;20237;-67
2022/12/29 10:14:26;;;;;;;1.33;0.90;;;;;;;11.17;77.95;99900.63;5996752;29;20239;-68
2022/12/29 10:17:54;;;;;;;0.70;0.70;;;;;;;11.59;77.96;99905.09;6013200;29;20230;-68
2022/12/29 10:21:26;;;;;;;0.70;0.70;;;;;;;11.62;76.49;99916.41;6013088;29;20324;-67
2022/12/29 10:24:49;;;;;;;0.90;0.70;;;;;;;13.05;70.40;99910.19;6002950;29;20301;-69
2022/12/29 10:28:20;;;;;;;0.67;0.67;;;;;;;12.41;73.08;99916.59;5998942;29;20238;-67
2022/12/29 10:31:44;;;;;;;1.57;0.90;;;;;;;11.39;76.66;99922.59;6009302;29;20609;-68
2022/12/29 10:35:12;;;;;;;0.60;0.57;;;;;;;11.21;76.99;99896.59;6009005;29;20238;-68
2022/12/29 10:38:44;;;;;;;0.60;0.53;;;;;;;13.13;70.47;99903.91;6012814;29;20238;-67
2022/12/29 10:42:14;;;;;;;2.30;1.10;;;;;;;12.71;70.55;99886.13;6015047;29;20242;-68
2022/12/29 10:45:35;;;;;;;3.03;2.23;;;;;;;13.03;68.95;99887.00;6003330;29;20507;-69
2022/12/29 10:48:58;;;;;;;1.57;1.47;;;;;;;12.18;70.50;99890.47;6016895;29;20238;-68
2022/12/29 10:52:21;;;;;;;0.80;0.70;;;;;;;11.39;74.56;99901.03;6001285;29;20231;-69
2022/12/29 10:55:42;;;;;;;3.60;1.07;;;;;;;11.81;73.67;99888.25;6011625;29;20235;-68
2022/12/29 10:59:13;;;;;;;2.50;1.50;;;;;;;11.45;74.09;99884.16;6007195;29;20243;-67
2022/12/29 11:02:51;;;;;;;4.37;1.83;;;;;;;13.32;68.66;99887.22;6021352;29;20242;-68
2022/12/29 11:06:19;;;;;;;0.80;0.80;;;;;;;12.34;69.80;99903.94;6014072;29;20603;-69
2022/12/29 11:09:41;;;;;;;2.20;1.50;;;;;;;11.58;74.10;99893.44;6013686;29;20245;-70
2022/12/29 11:13:05;;;;;;;3.43;0.97;;;;;;;11.42;74.61;99898.81;6011507;29;20827;-68
2022/12/29 11:16:31;;;;;;;3.43;1.00;;;;;;;11.20;75.36;99900.28;6018423;29;20230;-69
2022/12/29 11:19:52;;;;;;;0.77;0.77;;;;;;;12.74;70.51;99918.25;5998422;29;20325;-70
2022/12/29 11:23:29;;;;;;;2.17;0.90;;;;;;;12.99;67.94;99896.50;6017732;29;20247;-69
2022/12/29 11:26:52;;;;;;;0.87;0.70;;;;;;;12.39;69.91;99899.69;5997218;29;20553;-69
2022/12/29 11:30:24;;;;;;;2.57;2.27;;;;;;;11.68;71.48;99913.06;5985320;29;20230;-68
2022/12/29 11:33:45;;;;;;;2.03;0.77;;;;;;;11.18;74.20;99896.91;5986600;29;20649;-68
2022/12/29 11:37:10;;;;;;;5.80;1.43;;;;;;;11.19;74.00;99901.31;6007198;29;20323;-66
2022/12/29 11:40:39;;;;;;;3.57;1.53;;;;;;;11.17;73.41;99897.06;5992312;29;20250;-68
2022/12/29 11:44:03;;;;;;;2.13;1.00;;;;;;;11.17;74.06;99897.94;5985968;29;20235;-68
2022/12/29 11:47:29;;;;;;;1.03;0.47;;;;;;;10.91;73.79;99899.84;6019932;29;21202;-68
2022/12/29 11:50:54;;;;;;;1.20;0.90;;;;;;;10.90;74.54;99908.09;6008956;29;20257;-68
2022/12/29 11:54:22;;;;;;;7.00;0.97;;;;;;;10.70;75.92;99899.41;6002411;29;20345;-69
2022/12/29 11:57:45;;;;;;;0.93;0.93;;;;;;;10.70;76.63;99915.56;6002949;29;20598;-68
2022/12/29 12:01:11;;;;;;;0.93;0.90;;;;;;;10.85;75.89;99895.09;6012192;29;20237;-68
2022/12/29 12:04:37;;;;;;;3.40;0.70;;;;;;;10.99;76.28;99907.13;6002787;29;20476;-69
2022/12/29 12:08:03;;;;;;;1.67;0.83;;;;;;;10.60;78.02;99922.13;6005971;29;20239;-68
2022/12/29 12:11:35;;;;;;;0.70;0.70;;;;;;;10.58;78.01;99919.56;6016515;29;20671;-69
2022/12/29 12:15:00;;;;;;;0.57;0.57;;;;;;;10.48;78.61;99931.44;6014804;29;20735;-67
2022/12/29 12:18:41;;;;;;;0.77;0.77;;;;;;;10.41;79.31;99936.63;6030218;29;20260;-67
2022/12/29 12:22:09;;;;;;;1.43;0.60;;;;;;;10.49;79.94;99930.47;6007339;29;20562;-69
2022/12/29 12:25:35;;;;;;;0.80;0.80;;;;;;;10.51;79.80;99936.53;6003352;29;20230;-68
2022/12/29 12:29:00;;;;;;;1.43;1.00;;;;;;;10.53;80.13;99908.44;6018308;29;20239;-65
2022/12/29 12:32:30;;;;;;;1.83;1.27;;;;;;;10.50;81.32;99916.81;6004850;29;20238;-64
2022/12/29 12:36:22;;;;;;;1.77;1.20;;;;;;;10.49;79.83;99922.38;6011652;29;20443;-69
2022/12/29 12:39:57;;;;;;;3.07;1.20;;;;;;;10.36;81.28;99909.31;6013478;29;20237;-69
2022/12/29 12:43:34;;;;;;;1.10;0.97;;;;;;;10.28;81.63;99923.56;6023795;29;20331;-68
2022/12/29 12:47:22;;;;;;;2.20;1.00;;;;;;;10.32;81.63;99911.50;6013144;29;20250;-67
2022/12/29 12:50:52;;;;;;;0.87;0.70;;;;;;;10.46;79.32;99923.53;6011999;29;20261;-68
2022/12/29 12:54:34;;;;;;;1.53;1.13;;;;;;;10.43;79.80;99919.28;6012488;29;20242;-67
2022/12/29 12:58:05;;;;;;;3.60;0.80;;;;;;;10.41;80.78;99915.06;6017828;29;20234;-68
2022/12/29 13:01:38;;;;;;;1.43;0.83;;;;;;;10.48;79.74;99918.81;6012263;29;20242;-68
2022/12/29 13:05:16;;;;;;;2.43;1.60;;;;;;;10.38;80.89;99915.41;6013465;29;20342;-69
2022/12/29 13:08:51;;;;;;;1.87;1.30;;;;;;;10.39;79.53;99923.31;6023346;29;20262;-67
2022/12/29 13:12:24;;;;;;;3.87;1.00;;;;;;;10.51;78.66;99926.59;6024187;29;20239;-68
2022/12/29 13:15:52;;;;;;;1.70;0.50;;;;;;;10.59;77.50;99921.25;6008210;29;20235;-68
2022/12/29 13:19:25;;;;;;;1.23;1.00;;;;;;;10.63;76.77;99937.94;6009583;29;20270;-69
2022/12/29 13:22:55;;;;;;;5.03;1.30;;;;;;;10.63;76.88;99933.41;6000119;29;20890;-68
2022/12/29 13:26:22;;;;;;;3.80;2.00;;;;;;;10.45;79.30;99946.09;5980966;29;20228;-68
2022/12/29 13:29:51;;;;;;;4.80;0.93;;;;;;;10.31;79.97;99950.19;5975576;29;20542;-68
2022/12/29 13:33:22;;;;;;;2.10;1.30;;;;;;;10.38;79.89;99953.97;6008898;29;20249;-68
2022/12/29 13:36:46;;;;;;;3.87;1.30;;;;;;;10.20;81.88;99960.41;5997096;29;20371;-69
2022/12/29 13:40:15;;;;;;;2.10;1.90;;;;;;;10.14;82.73;99983.38;5998965;29;20381;-69
2022/12/29 13:43:41;;;;;;;1.43;0.97;;;;;;;10.07;83.39;99979.63;6009420;29;20234;-68
2022/12/29 13:47:11;;;;;;;3.77;2.17;;;;;;;10.09;83.61;99990.22;6015470;29;20671;-67
2022/12/29 13:50:38;;;;;;;5.40;1.17;;;;;;;10.08;83.14;99993.91;6014876;29;20428;-67
2022/12/29 13:54:13;;;;;;;0.70;0.70;;;;;;;10.21;81.50;100010.56;6014986;29;20230;-68
2022/12/29 13:57:42;;;;;;;3.70;1.57;;;;;;;10.27;81.42;100009.94;6011870;29;20795;-67
2022/12/29 14:01:13;;;;;;;6.83;2.23;;;;;;;10.26;80.93;100014.47;6013781;29;20233;-68
2022/12/29 14:04:34;;;;;;;1.73;1.63;;;;;;;10.28;81.00;100017.03;6011360;29;20325;-68
2022/12/29 14:07:59;;;;;;;1.33;0.83;;;;;;;10.28;81.42;100017.03;6011722;29;20226;-68
2022/12/29 14:11:25;;;;;;;1.03;0.80;;;;;;;10.17;82.50;100046.88;6015439;29;20317;-68
2022/12/29 14:14:46;;;;;;;0.93;0.80;;;;;;;10.10;85.05;100075.38;6000399;29;20239;-67
2022/12/29 14:18:16;;;;;;;8.33;1.07;;;;;;;9.54;83.76;100097.09;6021712;29;20321;-68
2022/12/29 14:21:37;;;;;;;1.50;1.50;;;;;;;8.65;86.60;100103.88;6007188;29;20237;-69
2022/12/29 14:24:58;;;;;;;0.97;0.97;;;;;;;8.31;87.77;100099.94;5996789;29;20322;-68
2022/12/29 14:28:24;;;;;;;2.20;1.37;;;;;;;8.20;90.07;100110.75;5999126;29;20230;-68
2022/12/29 14:31:45;;;;;;;1.47;0.93;;;;;;;8.21;90.05;100099.03;5992230;29;21088;-67
2022/12/29 14:35:40;;;;;;;1.67;0.77;;;;;;;8.18;90.37;100088.56;5999886;29;20239;-67
2022/12/29 14:39:01;;;;;;;1.10;1.03;;;;;;;8.31;90.13;100107.13;5999570;29;20625;-68
2022/12/29 14:42:23;;;;;;;1.53;1.10;;;;;;;8.48;88.55;100114.47;6008879;29;20326;-68
2022/12/29 14:45:49;;;;;;;0.80;0.80;;;;;;;8.46;88.98;100124.53;6000870;29;20234;-66
2022/12/29 14:49:18;;;;;;;1.53;0.80;;;;;;;8.41;89.70;100132.13;6015386;29;20242;-67
2022/12/29 14:52:47;;;;;;;1.53;1.00;;;;;;;8.42;91.10;100131.16;6015062;29;20242;-67
2022/12/29 14:56:11;;;;;;;4.30;2.30;;;;;;;8.50;90.83;100132.16;6014937;29;20233;-67
2022/12/29 14:59:35;;;;;;;2.30;0.80;;;;;;;8.46;90.96;100132.59;6000756;29;20230;-67
2022/12/29 15:03:06;;;;;;;1.97;1.77;;;;;;;8.50;92.04;100121.41;5988224;29;20235;-68
2022/12/29 15:06:31;;;;;;;2.40;0.90;;;;;;;8.45;91.79;100145.16;5999256;29;20234;-68
2022/12/29 15:09:59;;;;;;;1.90;1.50;;;;;;;8.53;90.72;100128.34;6008159;29;20412;-67
2022/12/29 15:13:24;;;;;;;2.33;1.00;;;;;;;8.57;90.83;100148.56;6023838;29;20233;-67
2022/12/29 15:16:45;;;;;;;1.63;1.10;;;;;;;8.55;91.69;100148.69;6008842;29;20238;-69
2022/12/29 15:20:18;;;;;;;4.17;1.23;;;;;;;8.51;91.92;100154.50;6015521;29;20665;-67
2022/12/29 15:23:39;;;;;;;2.07;1.90;;;;;;;8.51;91.77;100157.19;5986104;29;20238;-66
2022/12/29 15:27:04;;;;;;;2.70;1.70;;;;;;;8.52;91.62;100158.88;6020085;29;20234;-66
2022/12/29 15:30:25;;;;;;;2.50;1.40;;;;;;;8.54;91.12;100173.00;5996497;29;20280;-68
2022/12/29 15:33:48;;;;;;;1.93;1.67;;;;;;;8.50;91.58;100176.97;6005967;29;20265;-68
2022/12/29 15:37:09;;;;;;;4.33;2.23;;;;;;;8.54;91.18;100194.50;6007863;29;20238;-69
2022/12/29 15:40:32;;;;;;;4.77;2.63;;;;;;;8.53;92.26;100190.13;6005024;29;20233;-70
2022/12/29 15:44:05;;;;;;;4.70;1.53;;;;;;;8.57;92.13;100196.91;6014440;29;20230;-69
2022/12/29 15:47:30;;;;;;;3.23;2.03;;;;;;;8.62;90.74;100202.69;6006673;29;22079;-69
2022/12/29 15:50:52;;;;;;;8.17;2.90;;;;;;;8.70;90.09;100213.59;6012566;29;20379;-68
2022/12/29 15:54:17;;;;;;;3.50;2.37;;;;;;;8.68;90.97;100212.88;5995105;29;20243;-67
2022/12/29 15:57:43;;;;;;;3.50;2.10;;;;;;;8.72;89.43;100206.25;6023013;29;20254;-68
2022/12/29 16:01:14;;;;;;;3.60;1.87;;;;;;;8.67;89.15;100208.53;6013737;29;20238;-69
2022/12/29 16:04:35;;;;;;;3.63;1.87;;;;;;;8.72;88.51;100214.31;5997964;29;20514;-69
2022/12/29 16:07:58;;;;;;;2.37;2.03;;;;;;;8.69;88.09;100220.81;6015227;29;20789;-69
2022/12/29 16:11:26;;;;;;;3.77;1.50;;;;;;;8.72;87.72;100225.03;6006576;29;20588;-69
2022/12/29 16:14:49;;;;;;;4.80;3.33;;;;;;;8.72;88.07;100238.47;5998694;29;20636;-69
2022/12/29 16:18:24;;;;;;;11.23;3.53;;;;;;;8.73;87.12;100241.06;6005145;29;20230;-66
2022/12/29 16:21:46;;;;;;;2.83;1.50;;;;;;;8.75;87.62;100251.66;6009102;29;20450;-68
2022/12/29 16:25:15;;;;;;;3.97;2.10;;;;;;;8.74;86.73;100247.28;6011236;29;20234;-67
2022/12/29 16:28:41;;;;;;;4.93;1.97;;;;;;;8.76;87.35;100245.31;5993412;29;21483;-69
2022/12/29 16:32:03;;;;;;;1.67;1.20;;;;;;;8.75;87.38;100243.59;5998436;29;20226;-68
2022/12/29 16:35:47;;;;;;;3.33;2.13;;;;;;;8.80;86.86;100252.91;6007878;29;20237;-69
2022/12/29 16:39:26;;;;;;;5.20;1.87;;;;;;;8.83;86.96;100254.47;5999833;29;20285;-68
2022/12/29 16:42:48;;;;;;;1.50;1.40;;;;;;;8.80;87.91;100241.34;5989505;29;20442;-69
2022/12/29 16:46:27;;;;;;;3.90;1.43;;;;;;;8.74;88.15;100244.59;6006632;29;20234;-68
2022/12/29 16:49:53;;;;;;;7.37;1.50;;;;;;;8.71;88.08;100250.25;6013662;29;20262;-68
2022/12/29 16:53:21;;;;;;;2.67;1.77;;;;;;;8.66;88.68;100268.59;6011357;29;20235;-68